Time,TemperatureF,DewpointF,PressureIn,WindDirection,WindDirectionDegrees,WindSpeedMPH,WindSpeedGustMPH,Humidity,HourlyPrecipIn,Conditions,Clouds,dailyrainin,SoftwareType,DateUTC
2014-04-18 00:10:00,61.5,53.5,30.23,SSW,202,3.7,-999.0,75,-99.99,,,0.00,Acu-Link.com,2014-04-18 04:10:00,
2014-04-18 00:25:00,61.5,53.9,30.23,ESE,112,1.7,-999.0,76,-99.99,,,0.00,Acu-Link.com,2014-04-18 04:25:00,
2014-04-18 00:40:00,61.7,54.4,30.22,West,270,2.2,-999.0,77,-99.99,,,0.00,Acu-Link.com,2014-04-18 04:40:00,
2014-04-18 00:55:00,61.5,55.3,30.21,ESE,112,3.7,-999.0,80,-99.99,,,0.00,Acu-Link.com,2014-04-18 04:55:00,
2014-04-18 01:11:00,61.5,55.3,30.22,West,270,0.0,-999.0,80,-99.99,,,0.00,Acu-Link.com,2014-04-18 05:11:00,
2014-04-18 01:26:00,61.3,55.4,30.21,SSE,157,2.7,-999.0,81,-99.99,,,0.00,Acu-Link.com,2014-04-18 05:26:00,
2014-04-18 01:41:00,61.2,55.3,30.20,WNW,292,2.7,-999.0,81,-99.99,,,0.00,Acu-Link.com,2014-04-18 05:41:00,
2014-04-18 01:56:00,61.2,55.3,30.21,SE,135,1.1,-999.0,81,-99.99,,,0.00,Acu-Link.com,2014-04-18 05:56:00,
2014-04-18 02:12:00,61.2,55.7,30.20,East,90,2.2,-999.0,82,-99.99,,,0.00,Acu-Link.com,2014-04-18 06:12:00,
2014-04-18 02:27:00,61.2,55.7,30.18,SSW,202,1.1,-999.0,82,-99.99,,,0.00,Acu-Link.com,2014-04-18 06:27:00,
2014-04-18 02:42:00,61.2,55.7,30.18,ESE,112,2.7,-999.0,82,-99.99,,,0.00,Acu-Link.com,2014-04-18 06:42:00,
2014-04-18 02:57:00,61.3,55.8,30.17,ESE,112,3.2,-999.0,82,-99.99,,,0.00,Acu-Link.com,2014-04-18 06:57:00,
2014-04-18 03:12:00,61.3,55.8,30.16,SW,225,1.7,-999.0,82,-99.99,,,0.00,Acu-Link.com,2014-04-18 07:12:00,
2014-04-18 03:28:00,61.3,55.8,30.17,ESE,112,4.2,-999.0,82,-99.99,,,0.00,Acu-Link.com,2014-04-18 07:28:00,
2014-04-18 03:43:00,61.7,56.1,30.17,ESE,112,2.7,-999.0,82,-99.99,,,0.00,Acu-Link.com,2014-04-18 07:43:00,
2014-04-18 03:58:00,61.7,56.5,30.16,SSE,157,2.7,-999.0,83,-99.99,,,0.00,Acu-Link.com,2014-04-18 07:58:00,
2014-04-18 04:14:00,61.7,56.5,30.16,South,180,2.7,-999.0,83,-99.99,,,0.00,Acu-Link.com,2014-04-18 08:14:00,
2014-04-18 04:29:00,61.7,56.5,30.15,NE,45,4.2,-999.0,83,-99.99,,,0.00,Acu-Link.com,2014-04-18 08:29:00,
2014-04-18 04:44:00,61.7,56.5,30.14,SSE,157,2.2,-999.0,83,-99.99,,,0.00,Acu-Link.com,2014-04-18 08:44:00,
2014-04-18 04:59:00,61.7,56.5,30.14,NNW,337,2.7,-999.0,83,-99.99,,,0.00,Acu-Link.com,2014-04-18 08:59:00,
2014-04-18 05:15:00,61.7,56.5,30.14,East,90,2.7,-999.0,83,-99.99,,,0.00,Acu-Link.com,2014-04-18 09:15:00,
2014-04-18 05:30:00,61.7,56.8,30.14,ESE,112,4.7,-999.0,84,-99.99,,,0.00,Acu-Link.com,2014-04-18 09:30:00,
2014-04-18 05:45:00,61.7,56.8,30.15,NE,45,4.2,-999.0,84,-99.99,,,0.00,Acu-Link.com,2014-04-18 09:45:00,
2014-04-18 06:00:00,61.3,57.4,30.14,ENE,67,2.2,-999.0,87,-99.99,,,0.00,Acu-Link.com,2014-04-18 10:00:00,
2014-04-18 06:16:00,60.8,57.5,30.14,East,90,5.8,-999.0,89,-99.99,,,0.00,Acu-Link.com,2014-04-18 10:16:00,
2014-04-18 06:31:00,60.6,57.6,30.13,South,180,2.2,-999.0,90,-99.99,,,0.00,Acu-Link.com,2014-04-18 10:31:00,
2014-04-18 06:46:00,60.4,57.5,30.13,South,180,4.7,-999.0,90,-99.99,,,0.00,Acu-Link.com,2014-04-18 10:46:00,
2014-04-18 07:02:00,60.4,57.5,30.12,ENE,67,4.2,-999.0,90,-99.99,,,0.00,Acu-Link.com,2014-04-18 11:02:00,
2014-04-18 07:17:00,60.4,57.1,30.13,ESE,112,8.3,-999.0,89,-99.99,,,0.00,Acu-Link.com,2014-04-18 11:17:00,
2014-04-18 07:32:00,60.6,57.3,30.13,ESE,112,2.7,-999.0,89,-99.99,,,0.00,Acu-Link.com,2014-04-18 11:32:00,
2014-04-18 07:47:00,60.6,57.0,30.14,ESE,112,2.7,-999.0,88,-99.99,,,0.00,Acu-Link.com,2014-04-18 11:47:00,
2014-04-18 08:18:00,60.6,56.7,30.15,WNW,292,3.7,-999.0,87,-99.99,,,0.00,Acu-Link.com,2014-04-18 12:18:00,
2014-04-18 08:33:00,60.6,56.7,30.15,ENE,67,2.2,-999.0,87,-99.99,,,0.00,Acu-Link.com,2014-04-18 12:33:00,
2014-04-18 08:48:00,60.6,56.4,30.16,ESE,112,4.7,-999.0,86,-99.99,,,0.00,Acu-Link.com,2014-04-18 12:48:00,
2014-04-18 09:03:00,60.6,56.7,30.15,ESE,112,4.2,-999.0,87,-99.99,,,0.00,Acu-Link.com,2014-04-18 13:03:00,
2014-04-18 09:18:00,60.6,56.4,30.15,ESE,112,3.7,-999.0,86,-99.99,,,0.00,Acu-Link.com,2014-04-18 13:18:00,
2014-04-18 09:33:00,60.1,56.2,30.15,South,180,1.7,-999.0,87,-99.99,,,0.00,Acu-Link.com,2014-04-18 13:33:00,
2014-04-18 09:49:00,60.1,56.5,30.16,SSW,202,3.2,-999.0,88,-99.99,,,0.00,Acu-Link.com,2014-04-18 13:49:00,
2014-04-18 10:04:00,60.1,56.2,30.16,West,270,1.7,-999.0,87,-99.99,,,0.00,Acu-Link.com,2014-04-18 14:04:00,
2014-04-18 10:19:00,60.3,56.4,30.16,WNW,292,3.2,-999.0,87,-99.99,,,0.00,Acu-Link.com,2014-04-18 14:19:00,
2014-04-18 10:34:00,59.9,55.7,30.15,SW,225,2.2,-999.0,86,-99.99,,,0.00,Acu-Link.com,2014-04-18 14:34:00,
2014-04-18 10:49:00,60.1,55.6,30.15,SSE,157,3.7,-999.0,85,-99.99,,,0.00,Acu-Link.com,2014-04-18 14:49:00,
2014-04-18 11:04:00,60.3,55.8,30.15,SW,225,3.7,-999.0,85,-99.99,,,0.00,Acu-Link.com,2014-04-18 15:04:00,
2014-04-18 11:19:00,60.4,55.5,30.14,East,90,4.7,-999.0,84,-99.99,,,0.00,Acu-Link.com,2014-04-18 15:19:00,
2014-04-18 11:34:00,60.3,55.4,30.13,NNE,22,3.2,-999.0,84,-99.99,,,0.00,Acu-Link.com,2014-04-18 15:34:00,
2014-04-18 11:49:00,60.3,55.4,30.13,ESE,112,2.7,-999.0,84,-99.99,,,0.00,Acu-Link.com,2014-04-18 15:49:00,
2014-04-18 12:05:00,60.3,55.4,30.11,South,180,4.2,-999.0,84,-99.99,,,0.00,Acu-Link.com,2014-04-18 16:05:00,
2014-04-18 12:20:00,60.1,54.9,30.11,East,90,3.2,-999.0,83,-99.99,,,0.00,Acu-Link.com,2014-04-18 16:20:00,
2014-04-18 12:35:00,60.1,55.2,30.10,South,180,0.0,-999.0,84,-99.99,,,0.00,Acu-Link.com,2014-04-18 16:35:00,
2014-04-18 12:51:00,59.2,55.6,30.06,NE,45,4.7,-999.0,88,-99.99,,,0.01,Acu-Link.com,2014-04-18 16:51:00,
2014-04-18 13:06:00,58.8,55.9,30.08,South,180,5.8,-999.0,90,-99.99,,,0.02,Acu-Link.com,2014-04-18 17:06:00,
2014-04-18 13:21:00,58.8,55.9,30.06,South,180,2.7,-999.0,90,-99.99,,,0.04,Acu-Link.com,2014-04-18 17:21:00,
2014-04-18 13:36:00,58.6,55.7,30.05,East,90,2.7,-999.0,90,-99.99,,,0.04,Acu-Link.com,2014-04-18 17:36:00,
2014-04-18 13:51:00,58.6,55.7,30.04,East,90,4.7,-999.0,90,-99.99,,,0.04,Acu-Link.com,2014-04-18 17:51:00,
2014-04-18 14:07:00,58.6,55.7,30.03,ENE,67,5.3,-999.0,90,-99.99,,,0.04,Acu-Link.com,2014-04-18 18:07:00,
2014-04-18 14:22:00,58.3,55.7,30.02,WSW,247,2.7,-999.0,91,-99.99,,,0.08,Acu-Link.com,2014-04-18 18:22:00,
2014-04-18 14:37:00,58.3,55.7,30.03,East,90,5.3,-999.0,91,-99.99,,,0.10,Acu-Link.com,2014-04-18 18:37:00,
2014-04-18 14:52:00,58.3,56.0,30.03,East,90,2.7,-999.0,92,-99.99,,,0.14,Acu-Link.com,2014-04-18 18:52:00,
2014-04-18 15:08:00,58.3,56.3,30.00,South,180,1.7,-999.0,93,-99.99,,,0.20,Acu-Link.com,2014-04-18 19:08:00,
2014-04-18 15:23:00,58.3,56.3,29.98,ESE,112,4.7,-999.0,93,-99.99,,,0.32,Acu-Link.com,2014-04-18 19:23:00,
2014-04-18 15:38:00,58.3,56.3,29.98,SSE,157,3.2,-999.0,93,-99.99,,,0.42,Acu-Link.com,2014-04-18 19:38:00,
2014-04-18 15:54:00,58.3,56.3,29.97,SE,135,3.7,-999.0,93,-99.99,,,0.47,Acu-Link.com,2014-04-18 19:54:00,
2014-04-18 16:09:00,58.3,56.3,29.96,NNE,22,3.7,-999.0,93,-99.99,,,0.57,Acu-Link.com,2014-04-18 20:09:00,
2014-04-18 16:24:00,58.3,56.3,29.94,SSE,157,3.2,-999.0,93,-99.99,,,0.70,Acu-Link.com,2014-04-18 20:24:00,
2014-04-18 16:39:00,58.3,56.3,29.97,SW,225,5.3,-999.0,93,-99.99,,,0.84,Acu-Link.com,2014-04-18 20:39:00,
2014-04-18 16:54:00,58.3,56.3,29.95,West,270,2.7,-999.0,93,-99.99,,,0.96,Acu-Link.com,2014-04-18 20:54:00,
2014-04-18 17:09:00,58.5,56.8,29.95,ESE,112,1.7,-999.0,94,-99.99,,,1.04,Acu-Link.com,2014-04-18 21:09:00,
2014-04-18 17:25:00,58.6,56.9,29.95,ESE,112,4.7,-999.0,94,-99.99,,,1.23,Acu-Link.com,2014-04-18 21:25:00,
2014-04-18 17:40:00,58.6,56.9,29.95,East,90,3.2,-999.0,94,-99.99,,,1.34,Acu-Link.com,2014-04-18 21:40:00,
2014-04-18 17:55:00,58.6,56.9,29.94,ENE,67,3.2,-999.0,94,-99.99,,,1.46,Acu-Link.com,2014-04-18 21:55:00,
2014-04-18 18:11:00,58.6,56.9,29.94,NE,45,5.3,-999.0,94,-99.99,,,1.48,Acu-Link.com,2014-04-18 22:11:00,
2014-04-18 18:26:00,58.6,56.9,29.94,NE,45,5.3,-999.0,94,-99.99,,,1.54,Acu-Link.com,2014-04-18 22:26:00,
2014-04-18 18:41:00,58.6,56.9,29.93,WNW,292,3.2,-999.0,94,-99.99,,,1.60,Acu-Link.com,2014-04-18 22:41:00,
2014-04-18 18:56:00,58.6,56.9,29.95,NE,45,1.7,-999.0,94,-99.99,,,1.86,Acu-Link.com,2014-04-18 22:56:00,
2014-04-18 19:12:00,58.6,56.9,29.94,NE,45,3.7,-999.0,94,-99.99,,,1.92,Acu-Link.com,2014-04-18 23:12:00,
2014-04-18 19:27:00,58.6,56.9,29.94,ENE,67,2.7,-999.0,94,-99.99,,,1.94,Acu-Link.com,2014-04-18 23:27:00,
2014-04-18 19:42:00,58.6,56.9,29.94,NE,45,4.2,-999.0,94,-99.99,,,1.95,Acu-Link.com,2014-04-18 23:42:00,
2014-04-18 19:58:00,58.6,56.9,29.92,ENE,67,5.8,-999.0,94,-99.99,,,1.96,Acu-Link.com,2014-04-18 23:58:00,
2014-04-18 20:13:00,59.2,57.5,29.89,ESE,112,4.7,-999.0,94,-99.99,,,2.00,Acu-Link.com,2014-04-19 00:13:00,
2014-04-18 20:28:00,59.0,57.3,29.92,NE,45,2.7,-999.0,94,-99.99,,,2.00,Acu-Link.com,2014-04-19 00:28:00,